ドゥシャンベ の空港の天気 - METARとTAF

ドゥシャンベ空港 ( UTDD / DYU ) - タジキスタン ドゥシャンベ
飛行場実況気象(Metar)
観測時間11/21 17:00 TJT (11/21 12:00 UTC)
風向・風速西南西 4m/s
視程2200m
天気現象弱いしゅう雨 もや
全天の4割程度の雲 雲底高度 1650m
全天を覆う雲 雲底高度 1980m
気温10℃
湿度87%
気圧1017hPa
METARUTDD 211200Z 25004MPS 2200 -SHRA BR SCT054CB OVC065 10/08 Q1017 R09/29//50 NOSIG RMK QFE694/0926
過去の天気等 Google飛行場航空写真 Wunderground天気予報

過去48時間のMETAR

飛行場予報(TAF)
発表時間: 11/21 14:00 TJT (11/21 09:00 UTC)
予報対象時間: 21日15時 TJT ~ 22日3時 TJT
風向・風速不定 2m/s
視程3100m
天気現象もや 煙
全天の4割程度の雲 雲底高度 340m
全天の8割程度の積乱雲 雲底高度 910m
全天を覆う雲 雲底高度 2440m
21日15時 TJT ~ 21日24時 TJT に一時的に
風向・風速西 8m/s 瞬間風速 13m/s
視程1200m
天気現象しゅう雨 もや 煙
22日0時 TJT ~ 22日3時 TJT に一時的に
風向・風速西北西 10m/s 瞬間風速 15m/s
視程500m
天気現象しゅう雨雪 霧
全天の8割程度の雲 雲底高度 150m
TAF UTDD 210900Z 2110/2122 VRB02MPS 3100 BR FU SCT011 BKN030CB OVC080
TEMPO 2110/2119 27008G13MPS 1200 SHRA BR FU
TEMPO 2119/2122 29010G15MPS 0500 SHRASN FG BKN005